Time;durP1;ratioP1;P1;durP2;ratioP2;P2;SDS_P1;SDS_P2;PMS_P1;PMS_P2;Temp;Humidity;BMP_temperature;BMP_pressure;BME280_temperature;BME280_humidity;BME280_pressure;Samples;Min_cycle;Max_cycle;Signal;HPM_P1;HPM_P2
2023/12/22 00:02:17;;;;;;;8.82;1.15;;;6.10;99.90;;;;;;5047192;28;20103;-83
2023/12/22 00:04:43;;;;;;;8.93;0.45;;;6.10;99.90;;;;;;5064596;28;20117;-85
2023/12/22 00:07:08;;;;;;;8.80;0.65;;;6.10;99.90;;;;;;5046373;28;20051;-83
2023/12/22 00:09:34;;;;;;;11.65;0.70;;;6.20;99.90;;;;;;5047458;28;20025;-83
2023/12/22 00:12:00;;;;;;;12.10;0.68;;;6.20;99.90;;;;;;5048098;28;20040;-83
2023/12/22 00:14:25;;;;;;;8.05;0.47;;;6.20;99.90;;;;;;5046836;28;20428;-83
2023/12/22 00:16:51;;;;;;;10.15;0.55;;;6.10;99.90;;;;;;5065719;28;20033;-82
2023/12/22 00:19:17;;;;;;;5.97;0.60;;;6.10;99.90;;;;;;5047890;28;20013;-84
2023/12/22 00:21:42;;;;;;;7.43;0.50;;;6.10;99.90;;;;;;5050504;28;20068;-83
2023/12/22 00:24:08;;;;;;;8.32;0.40;;;6.20;99.90;;;;;;5035924;28;20455;-83
2023/12/22 00:26:34;;;;;;;7.20;0.52;;;6.20;99.90;;;;;;5064626;28;20025;-83
2023/12/22 00:28:59;;;;;;;11.15;0.50;;;6.20;99.90;;;;;;5047568;28;20048;-84
2023/12/22 00:31:25;;;;;;;9.63;0.80;;;6.20;99.90;;;;;;5061433;28;20053;-83
2023/12/22 00:33:50;;;;;;;8.85;0.40;;;6.30;99.90;;;;;;5033100;28;20084;-84
2023/12/22 00:36:18;;;;;;;7.72;0.55;;;6.30;99.90;;;;;;5046541;28;20053;-83
2023/12/22 00:38:44;;;;;;;11.82;1.25;;;6.40;99.90;;;;;;5035292;28;20033;-83
2023/12/22 00:41:10;;;;;;;12.07;0.65;;;6.50;99.90;;;;;;5079034;28;20040;-85
2023/12/22 00:43:36;;;;;;;11.02;0.50;;;6.50;99.90;;;;;;5049251;28;20021;-83
2023/12/22 00:46:01;;;;;;;7.93;0.93;;;6.40;99.90;;;;;;5048299;28;20048;-85
2023/12/22 00:48:28;;;;;;;6.72;0.75;;;6.40;99.90;;;;;;5037264;28;20025;-83
2023/12/22 00:50:53;;;;;;;3.25;0.30;;;6.20;99.90;;;;;;5049219;28;20078;-81
2023/12/22 00:53:19;;;;;;;5.70;0.20;;;6.10;99.90;;;;;;5046421;28;20385;-84
2023/12/22 00:55:45;;;;;;;3.05;0.43;;;5.90;99.90;;;;;;5076683;28;20029;-81
2023/12/22 00:58:11;;;;;;;2.33;0.15;;;5.90;99.90;;;;;;5048533;28;20522;-84
2023/12/22 01:00:37;;;;;;;5.53;0.30;;;5.90;99.90;;;;;;5043632;28;20029;-84
2023/12/22 01:03:02;;;;;;;3.45;0.20;;;6.00;99.90;;;;;;5065015;28;20119;-82
2023/12/22 01:05:28;;;;;;;3.40;0.20;;;6.00;99.90;;;;;;5076655;28;20025;-83
2023/12/22 01:07:54;;;;;;;4.57;0.20;;;6.10;99.90;;;;;;5046166;28;20032;-82
2023/12/22 01:10:19;;;;;;;3.50;0.20;;;6.10;99.90;;;;;;5047094;28;20032;-80
2023/12/22 01:12:45;;;;;;;3.42;0.17;;;6.00;99.90;;;;;;5037680;28;20025;-83
2023/12/22 01:15:11;;;;;;;4.88;0.20;;;5.90;99.90;;;;;;5045892;28;20112;-83
2023/12/22 01:17:36;;;;;;;5.80;0.40;;;5.90;99.90;;;;;;5046815;28;20417;-82
2023/12/22 01:20:03;;;;;;;4.85;0.20;;;5.90;99.90;;;;;;5075579;28;20509;-81
2023/12/22 01:22:30;;;;;;;6.38;0.30;;;5.90;99.90;;;;;;5025677;28;20036;-82
2023/12/22 01:24:56;;;;;;;5.25;0.22;;;5.90;99.90;;;;;;5031078;28;20025;-83
2023/12/22 01:27:22;;;;;;;8.50;0.30;;;5.90;99.90;;;;;;5061450;28;20190;-83
2023/12/22 01:29:48;;;;;;;5.97;0.20;;;5.90;99.90;;;;;;5077174;28;20049;-81
2023/12/22 01:32:14;;;;;;;6.38;0.50;;;5.80;99.90;;;;;;5043005;28;20111;-84
2023/12/22 01:34:40;;;;;;;7.55;0.30;;;5.80;99.90;;;;;;5045177;28;20170;-81
2023/12/22 01:37:06;;;;;;;6.45;0.30;;;5.80;99.90;;;;;;5041635;28;20117;-82
2023/12/22 01:39:31;;;;;;;4.63;0.20;;;5.80;99.90;;;;;;5073937;28;20083;-83
2023/12/22 01:41:57;;;;;;;4.72;0.30;;;5.80;99.90;;;;;;5063275;28;20045;-84
2023/12/22 01:44:22;;;;;;;7.75;0.30;;;5.80;99.90;;;;;;5042671;28;20064;-83
2023/12/22 01:46:50;;;;;;;4.07;0.20;;;5.90;99.90;;;;;;5060403;28;20032;-81
2023/12/22 01:49:16;;;;;;;4.85;0.30;;;5.90;99.90;;;;;;5027402;28;20040;-83
2023/12/22 01:51:42;;;;;;;7.00;0.20;;;5.90;99.90;;;;;;5076703;28;20029;-81
2023/12/22 01:54:09;;;;;;;4.65;0.30;;;6.00;99.90;;;;;;5042833;28;20068;-81
2023/12/22 01:56:35;;;;;;;5.28;0.35;;;6.10;99.90;;;;;;5043773;28;20103;-81
2023/12/22 01:59:02;;;;;;;10.02;0.22;;;6.00;99.90;;;;;;5076917;28;20125;-82
2023/12/22 02:01:28;;;;;;;5.25;0.30;;;6.00;99.90;;;;;;5061068;28;20067;-83
2023/12/22 02:03:54;;;;;;;9.00;0.55;;;5.90;99.90;;;;;;5036790;28;20025;-80
2023/12/22 02:06:20;;;;;;;3.53;0.22;;;5.90;99.90;;;;;;5077358;28;20558;-81
2023/12/22 02:08:49;;;;;;;5.32;0.20;;;5.80;99.90;;;;;;5041872;28;20029;-81
2023/12/22 02:11:15;;;;;;;7.28;0.20;;;5.80;99.90;;;;;;5075924;28;20091;-83
2023/12/22 02:13:43;;;;;;;5.07;0.20;;;5.80;99.90;;;;;;5041946;28;20037;-81
2023/12/22 02:16:35;;;;;;;8.02;0.45;;;5.80;99.90;;;;;;5073518;28;20036;-84
2023/12/22 02:19:24;;;;;;;5.13;0.30;;;5.80;99.90;;;;;;5044381;28;20544;-80
2023/12/22 02:22:01;;;;;;;9.10;0.30;;;5.80;99.90;;;;;;5057717;28;20378;-84
2023/12/22 02:24:27;;;;;;;4.82;0.30;;;5.80;99.90;;;;;;5040945;28;20022;-83
2023/12/22 02:26:55;;;;;;;6.28;0.30;;;5.90;99.90;;;;;;5060987;28;20037;-81
2023/12/22 02:29:22;;;;;;;9.00;0.43;;;5.80;99.90;;;;;;5074304;28;20044;-83
2023/12/22 02:31:51;;;;;;;9.57;0.55;;;5.80;99.90;;;;;;5041034;28;20041;-83
2023/12/22 02:34:19;;;;;;;7.93;0.40;;;5.70;99.90;;;;;;5059690;28;20079;-82
2023/12/22 02:36:47;;;;;;;7.55;0.30;;;5.70;99.90;;;;;;5074250;28;20043;-84
2023/12/22 02:39:14;;;;;;;13.88;0.60;;;5.80;99.90;;;;;;5027906;28;20059;-82
2023/12/22 02:41:41;;;;;;;11.02;0.40;;;5.80;99.90;;;;;;5032174;28;20060;-82
2023/12/22 02:44:07;;;;;;;7.32;0.30;;;5.80;99.90;;;;;;5059129;28;20460;-82
2023/12/22 02:46:34;;;;;;;5.85;0.30;;;5.80;99.90;;;;;;5040629;28;20032;-83
2023/12/22 02:48:59;;;;;;;9.35;0.40;;;5.80;99.90;;;;;;5040074;28;20400;-83
2023/12/22 02:51:25;;;;;;;4.97;0.30;;;5.90;99.90;;;;;;5046761;28;20035;-83
2023/12/22 02:53:51;;;;;;;6.20;0.70;;;5.90;99.90;;;;;;5040809;28;20052;-83
2023/12/22 02:56:16;;;;;;;5.95;0.40;;;6.00;99.90;;;;;;5059493;28;20035;-82
2023/12/22 02:58:42;;;;;;;14.57;0.80;;;6.00;99.90;;;;;;5064669;28;20033;-84
2023/12/22 03:01:08;;;;;;;7.43;0.55;;;6.00;99.90;;;;;;5044119;28;20060;-83
2023/12/22 03:03:33;;;;;;;11.57;0.57;;;6.00;99.90;;;;;;5032575;28;20020;-84
2023/12/22 03:05:59;;;;;;;9.15;0.60;;;6.00;99.90;;;;;;5048184;28;20064;-82
2023/12/22 03:08:24;;;;;;;12.48;1.05;;;6.00;99.90;;;;;;5043587;28;20021;-82
2023/12/22 03:10:50;;;;;;;9.07;0.40;;;6.00;99.90;;;;;;5064816;28;20036;-85
2023/12/22 03:13:16;;;;;;;13.27;0.70;;;6.00;99.90;;;;;;5046250;28;20431;-83
2023/12/22 03:15:42;;;;;;;14.10;0.80;;;6.00;99.90;;;;;;5044631;28;20040;-82
2023/12/22 03:18:07;;;;;;;11.80;0.50;;;6.00;99.90;;;;;;5048356;28;20018;-82
2023/12/22 03:20:33;;;;;;;13.85;1.00;;;6.00;99.90;;;;;;5059232;28;20037;-84
2023/12/22 03:22:58;;;;;;;7.85;0.40;;;6.10;99.90;;;;;;5080416;28;20048;-83
2023/12/22 03:25:24;;;;;;;9.18;0.55;;;6.10;99.90;;;;;;5060948;28;20128;-84
2023/12/22 03:27:50;;;;;;;5.97;0.30;;;6.10;99.90;;;;;;5028303;28;20111;-84
2023/12/22 03:30:16;;;;;;;11.07;0.40;;;6.10;99.90;;;;;;5077254;28;20046;-84
2023/12/22 03:32:41;;;;;;;9.25;0.35;;;6.10;99.90;;;;;;5046001;28;20132;-85
2023/12/22 03:35:07;;;;;;;6.35;0.30;;;5.60;99.90;;;;;;5078212;28;20028;-87
2023/12/22 03:37:33;;;;;;;3.42;0.20;;;5.20;99.90;;;;;;5047219;28;20017;-86
2023/12/22 03:39:58;;;;;;;2.55;0.25;;;4.90;99.90;;;;;;5082057;28;20116;-84
2023/12/22 03:42:24;;;;;;;3.08;0.17;;;4.80;99.90;;;;;;5031136;28;20033;-85
2023/12/22 03:44:50;;;;;;;2.55;0.20;;;4.80;99.90;;;;;;5079818;28;20022;-87
2023/12/22 03:47:15;;;;;;;3.65;0.20;;;4.90;99.90;;;;;;5076304;28;20540;-83
2023/12/22 03:49:41;;;;;;;1.55;0.10;;;4.90;99.90;;;;;;5045119;28;20040;-82
2023/12/22 03:52:06;;;;;;;4.40;0.20;;;4.90;99.90;;;;;;5046422;28;20082;-86
2023/12/22 03:54:32;;;;;;;5.50;0.30;;;5.00;99.90;;;;;;5060464;28;20075;-85
2023/12/22 03:56:58;;;;;;;4.07;0.30;;;4.90;99.90;;;;;;5046543;28;20033;-82
2023/12/22 03:59:23;;;;;;;3.05;0.20;;;4.90;99.90;;;;;;5045835;28;20029;-85
2023/12/22 04:01:57;;;;;;;5.03;0.20;;;4.90;99.90;;;;;;5044182;28;20536;-87
2023/12/22 04:04:22;;;;;;;3.60;0.20;;;4.90;99.90;;;;;;5045102;28;20044;-82
2023/12/22 04:06:49;;;;;;;5.57;0.25;;;4.90;99.90;;;;;;5077516;28;20493;-85
2023/12/22 04:09:14;;;;;;;2.50;0.20;;;5.00;99.90;;;;;;5063059;28;20504;-82
2023/12/22 04:11:41;;;;;;;4.43;0.15;;;5.00;99.90;;;;;;5060319;28;20041;-83
2023/12/22 04:14:07;;;;;;;4.78;0.10;;;5.10;99.90;;;;;;5079343;28;20047;-86
2023/12/22 04:16:32;;;;;;;2.95;0.20;;;5.10;99.90;;;;;;5044506;28;20622;-85
2023/12/22 04:18:58;;;;;;;5.00;0.25;;;5.10;99.90;;;;;;5078043;28;20075;-83
2023/12/22 04:21:23;;;;;;;6.28;0.17;;;5.10;99.90;;;;;;5077447;28;20064;-86
2023/12/22 04:23:49;;;;;;;3.65;0.17;;;5.00;99.90;;;;;;5043606;28;20500;-83
2023/12/22 04:26:15;;;;;;;5.95;0.38;;;5.10;99.90;;;;;;5040455;28;20098;-84
2023/12/22 04:28:40;;;;;;;4.65;0.45;;;5.00;99.90;;;;;;5044593;28;20703;-84
2023/12/22 04:31:06;;;;;;;4.68;0.30;;;5.10;99.90;;;;;;5078609;28;20052;-84
2023/12/22 04:33:32;;;;;;;7.30;0.40;;;5.20;99.90;;;;;;5043704;28;20025;-84
2023/12/22 04:35:58;;;;;;;2.47;0.20;;;5.20;99.90;;;;;;5076762;28;20070;-81
2023/12/22 04:38:23;;;;;;;7.25;0.25;;;5.20;99.90;;;;;;5044358;28;20032;-82
2023/12/22 04:40:49;;;;;;;5.30;0.30;;;5.30;99.90;;;;;;5059325;28;20037;-83
2023/12/22 04:43:15;;;;;;;5.07;0.30;;;5.50;99.90;;;;;;5078366;28;20030;-84
2023/12/22 04:45:40;;;;;;;4.65;0.20;;;5.40;99.90;;;;;;5042173;28;20029;-83
2023/12/22 04:48:06;;;;;;;7.30;0.50;;;5.40;99.90;;;;;;5076519;28;20025;-81
2023/12/22 04:50:32;;;;;;;6.82;0.60;;;5.60;99.90;;;;;;5075672;28;20038;-82
2023/12/22 04:52:57;;;;;;;10.35;0.40;;;5.60;99.90;;;;;;5041871;28;20032;-83
2023/12/22 04:55:23;;;;;;;8.27;0.50;;;5.60;99.90;;;;;;5044480;28;20036;-80
2023/12/22 04:57:49;;;;;;;10.07;0.63;;;5.70;99.90;;;;;;5043474;28;20028;-85
2023/12/22 05:00:15;;;;;;;9.52;0.80;;;5.80;99.90;;;;;;5075700;28;20493;-83
2023/12/22 05:02:41;;;;;;;10.18;1.23;;;6.00;99.90;;;;;;5044255;28;20046;-83
2023/12/22 05:05:08;;;;;;;9.18;0.63;;;6.00;99.90;;;;;;5076464;28;20021;-80
2023/12/22 05:07:34;;;;;;;11.48;0.70;;;6.00;99.90;;;;;;5075702;28;20033;-83
2023/12/22 05:10:01;;;;;;;11.70;0.60;;;6.20;99.90;;;;;;5042775;28;20381;-80
2023/12/22 05:12:26;;;;;;;12.10;0.70;;;6.20;99.90;;;;;;5075274;28;20051;-81
2023/12/22 05:14:52;;;;;;;18.65;0.88;;;6.10;99.90;;;;;;5060604;28;20440;-84
2023/12/22 05:17:17;;;;;;;15.05;0.85;;;6.30;99.90;;;;;;5041439;28;20025;-83
2023/12/22 05:19:43;;;;;;;16.13;0.60;;;6.30;99.90;;;;;;5043630;28;20032;-84
2023/12/22 05:22:09;;;;;;;12.88;0.88;;;6.20;99.90;;;;;;5077829;28;20036;-81
2023/12/22 05:24:34;;;;;;;9.60;0.80;;;6.20;99.90;;;;;;5060510;28;20029;-83
2023/12/22 05:27:01;;;;;;;10.85;1.45;;;6.20;99.90;;;;;;5045085;28;20033;-81
2023/12/22 05:29:26;;;;;;;15.07;0.70;;;6.20;99.90;;;;;;5075276;28;20045;-84
2023/12/22 05:31:52;;;;;;;20.95;0.90;;;6.20;99.90;;;;;;5059079;28;20056;-83
2023/12/22 05:34:17;;;;;;;12.90;1.65;;;6.10;99.90;;;;;;5060574;28;20029;-83
2023/12/22 05:36:43;;;;;;;12.05;0.65;;;6.10;99.90;;;;;;5061416;28;20041;-83
2023/12/22 05:39:10;;;;;;;5.68;0.75;;;6.10;99.90;;;;;;5076800;28;20025;-83
2023/12/22 05:41:38;;;;;;;15.57;0.70;;;6.00;99.90;;;;;;5043281;28;20128;-84
2023/12/22 05:44:07;;;;;;;10.30;0.57;;;6.10;99.90;;;;;;5040323;28;20037;-83
2023/12/22 05:46:40;;;;;;;13.32;0.60;;;6.00;99.90;;;;;;5058281;28;20034;-83
2023/12/22 05:49:06;;;;;;;8.63;0.50;;;6.00;99.90;;;;;;5076225;28;20029;-84
2023/12/22 05:51:41;;;;;;;8.32;0.50;;;6.00;99.90;;;;;;5044910;28;20033;-82
2023/12/22 05:54:11;;;;;;;12.98;1.17;;;6.00;99.90;;;;;;5043751;28;20086;-81
2023/12/22 05:56:37;;;;;;;10.02;0.47;;;6.00;99.90;;;;;;5026863;28;20089;-82
2023/12/22 05:59:03;;;;;;;9.32;0.40;;;6.00;99.90;;;;;;5036709;28;20036;-83
2023/12/22 06:01:29;;;;;;;8.18;0.30;;;6.00;99.90;;;;;;5042232;28;20037;-83
2023/12/22 06:03:54;;;;;;;8.20;0.40;;;6.00;99.90;;;;;;5074185;28;20033;-81
2023/12/22 06:06:20;;;;;;;6.82;0.65;;;6.00;99.90;;;;;;5053555;28;20036;-81
2023/12/22 06:08:46;;;;;;;5.78;0.65;;;6.00;99.90;;;;;;5041950;28;20025;-81
2023/12/22 06:11:12;;;;;;;3.63;0.28;;;5.90;99.90;;;;;;5073624;28;20036;-84
2023/12/22 06:13:38;;;;;;;11.07;0.50;;;5.90;99.90;;;;;;5039335;28;20022;-83
2023/12/22 06:16:04;;;;;;;7.45;0.43;;;5.90;99.90;;;;;;5063879;28;20463;-81
2023/12/22 06:18:29;;;;;;;9.82;0.70;;;5.90;99.90;;;;;;5076644;28;20044;-81
2023/12/22 06:20:55;;;;;;;7.93;0.50;;;5.90;99.90;;;;;;5048031;28;20033;-81
2023/12/22 06:23:21;;;;;;;10.20;1.30;;;5.90;99.90;;;;;;5046188;28;20043;-84
2023/12/22 06:25:47;;;;;;;5.60;0.40;;;5.90;99.90;;;;;;5031702;28;20040;-80
2023/12/22 06:28:16;;;;;;;10.10;0.60;;;6.00;99.90;;;;;;5047443;28;20106;-80
2023/12/22 06:30:42;;;;;;;11.40;0.50;;;6.00;99.90;;;;;;5047583;28;20153;-81
2023/12/22 06:33:08;;;;;;;14.68;0.50;;;6.10;99.90;;;;;;5060071;28;20373;-82
2023/12/22 06:35:34;;;;;;;11.55;0.60;;;6.10;99.90;;;;;;5064885;28;20031;-83
2023/12/22 06:38:03;;;;;;;6.18;0.60;;;6.20;99.90;;;;;;5047619;28;20025;-82
2023/12/22 06:40:29;;;;;;;10.03;0.67;;;6.30;99.90;;;;;;5078948;28;20032;-81
2023/12/22 06:42:55;;;;;;;15.93;0.75;;;6.50;99.90;;;;;;5065393;28;20040;-83
2023/12/22 06:45:20;;;;;;;16.25;0.70;;;6.40;99.90;;;;;;5066191;28;20366;-81
2023/12/22 06:47:46;;;;;;;17.75;0.70;;;6.60;99.90;;;;;;5046658;28;20059;-84
2023/12/22 06:50:11;;;;;;;16.88;0.90;;;6.80;99.90;;;;;;5030931;28;20044;-81
2023/12/22 06:52:37;;;;;;;9.70;0.80;;;6.90;99.90;;;;;;5078410;28;20075;-83
2023/12/22 06:55:03;;;;;;;15.02;1.10;;;7.00;99.90;;;;;;5079515;28;20041;-83
2023/12/22 06:57:28;;;;;;;14.23;0.90;;;7.00;99.90;;;;;;5047702;28;20078;-83
2023/12/22 06:59:55;;;;;;;9.23;0.98;;;7.10;99.90;;;;;;5062631;28;20087;-83
2023/12/22 07:02:20;;;;;;;10.85;1.05;;;7.20;99.90;;;;;;5048618;28;20040;-81
2023/12/22 07:05:23;;;;;;;16.42;0.82;;;7.20;99.90;;;;;;5043333;28;20521;-85
2023/12/22 07:07:50;;;;;;;10.43;0.43;;;7.30;99.90;;;;;;5047824;28;20033;-85
2023/12/22 07:10:16;;;;;;;13.15;1.20;;;7.40;99.90;;;;;;5047226;28;20075;-84
2023/12/22 07:12:41;;;;;;;15.02;1.05;;;7.50;99.90;;;;;;5047162;28;20032;-83
2023/12/22 07:15:07;;;;;;;10.93;0.77;;;7.50;99.90;;;;;;5038955;28;20055;-80
2023/12/22 07:17:34;;;;;;;15.32;1.20;;;7.60;99.90;;;;;;5033012;28;20059;-79
2023/12/22 07:19:59;;;;;;;12.20;0.70;;;7.50;99.90;;;;;;5038100;28;20025;-80
2023/12/22 07:22:25;;;;;;;16.20;0.88;;;7.50;99.90;;;;;;5049992;28;20049;-80
2023/12/22 07:24:52;;;;;;;17.63;1.27;;;7.60;99.90;;;;;;5051557;28;20033;-83
2023/12/22 07:27:18;;;;;;;12.65;0.52;;;7.60;99.90;;;;;;5040714;28;20041;-79
2023/12/22 07:29:44;;;;;;;15.80;1.00;;;7.50;99.90;;;;;;5036929;28;20086;-80
2023/12/22 07:32:09;;;;;;;15.60;0.98;;;7.50;99.90;;;;;;5043157;28;20052;-82
2023/12/22 07:34:35;;;;;;;17.30;1.35;;;7.60;99.90;;;;;;5034812;28;20047;-82
2023/12/22 07:37:01;;;;;;;12.52;1.00;;;7.50;99.90;;;;;;5024462;28;20044;-80
2023/12/22 07:39:27;;;;;;;14.00;1.60;;;7.50;99.90;;;;;;5036767;28;20048;-83
2023/12/22 07:41:52;;;;;;;17.77;0.95;;;7.60;99.90;;;;;;5043189;28;20037;-83
2023/12/22 07:44:18;;;;;;;9.90;0.90;;;7.60;99.90;;;;;;5035707;28;20025;-80
2023/12/22 07:46:43;;;;;;;17.08;1.13;;;7.60;99.90;;;;;;5017468;28;20447;-80
2023/12/22 07:49:09;;;;;;;13.55;0.82;;;7.70;99.90;;;;;;5034636;28;20449;-80
2023/12/22 07:51:35;;;;;;;21.50;1.73;;;7.70;99.90;;;;;;5034737;28;20048;-80
2023/12/22 07:54:01;;;;;;;19.55;1.48;;;7.90;99.90;;;;;;5035114;28;20274;-80
2023/12/22 07:56:27;;;;;;;21.75;2.40;;;7.90;99.90;;;;;;5016055;28;20052;-80
2023/12/22 07:58:53;;;;;;;15.68;1.50;;;8.00;99.90;;;;;;5040979;28;20112;-83
2023/12/22 08:01:19;;;;;;;16.83;1.40;;;7.90;99.90;;;;;;5026886;28;20056;-81
2023/12/22 08:03:44;;;;;;;19.52;1.73;;;8.00;99.90;;;;;;5027286;28;20033;-82
2023/12/22 08:06:10;;;;;;;16.10;2.22;;;8.00;99.90;;;;;;5043566;28;20627;-82
2023/12/22 08:08:36;;;;;;;16.02;1.73;;;8.00;99.90;;;;;;5034331;28;20553;-83
2023/12/22 08:11:02;;;;;;;17.50;1.85;;;8.10;99.90;;;;;;5035059;28;20382;-81
2023/12/22 08:13:27;;;;;;;15.90;2.10;;;8.00;99.90;;;;;;5037091;28;20370;-81
2023/12/22 08:15:53;;;;;;;20.88;1.30;;;8.00;99.90;;;;;;5074635;28;20025;-82
2023/12/22 08:18:19;;;;;;;24.10;1.60;;;8.00;99.90;;;;;;5078272;28;20068;-82
2023/12/22 08:20:44;;;;;;;17.60;2.20;;;8.10;99.90;;;;;;5063701;28;20086;-81
2023/12/22 08:23:12;;;;;;;20.00;1.92;;;8.10;99.90;;;;;;5044288;28;20032;-81
2023/12/22 08:25:39;;;;;;;22.20;1.92;;;8.10;99.90;;;;;;5029069;28;20037;-81
2023/12/22 08:28:05;;;;;;;23.05;2.63;;;8.10;99.90;;;;;;5076550;28;20414;-82
2023/12/22 08:30:30;;;;;;;23.25;1.75;;;8.10;99.90;;;;;;5077074;28;20037;-79
2023/12/22 08:32:56;;;;;;;15.75;1.20;;;8.00;99.90;;;;;;5063184;28;20040;-83
2023/12/22 08:35:22;;;;;;;20.23;1.40;;;7.70;99.90;;;;;;5062586;28;20084;-84
2023/12/22 08:37:47;;;;;;;14.98;1.33;;;7.70;99.90;;;;;;5044670;28;20029;-81
2023/12/22 08:40:13;;;;;;;6.93;0.75;;;7.60;99.90;;;;;;5060429;28;20479;-82
2023/12/22 08:42:39;;;;;;;14.48;1.00;;;7.50;99.90;;;;;;5063102;28;20477;-84
2023/12/22 08:45:05;;;;;;;10.48;0.55;;;7.40;99.90;;;;;;5073734;28;20094;-83
2023/12/22 08:47:31;;;;;;;10.90;0.57;;;7.40;99.90;;;;;;5038328;28;20448;-80
2023/12/22 08:49:57;;;;;;;14.57;1.00;;;7.40;99.90;;;;;;5060035;28;20048;-84
2023/12/22 08:52:22;;;;;;;12.15;0.60;;;7.50;99.90;;;;;;5060906;28;20060;-84
2023/12/22 08:54:48;;;;;;;9.45;0.50;;;7.40;99.90;;;;;;5040106;28;20108;-83
2023/12/22 08:57:13;;;;;;;13.05;0.63;;;7.40;99.90;;;;;;5061511;28;20033;-82
2023/12/22 08:59:39;;;;;;;14.13;0.95;;;7.50;99.90;;;;;;5057545;28;20563;-83
2023/12/22 09:02:05;;;;;;;14.38;1.27;;;7.60;99.90;;;;;;5071797;28;20093;-82
2023/12/22 09:04:31;;;;;;;13.98;0.75;;;7.60;99.90;;;;;;5040102;28;20390;-82
2023/12/22 09:06:57;;;;;;;11.77;1.00;;;7.60;99.90;;;;;;5057787;28;20033;-82
2023/12/22 09:09:24;;;;;;;18.02;1.65;;;7.60;99.90;;;;;;5038088;28;20034;-85
2023/12/22 09:11:50;;;;;;;16.08;1.35;;;7.70;99.90;;;;;;5038859;28;20171;-81
2023/12/22 09:14:15;;;;;;;15.20;1.00;;;7.80;99.90;;;;;;5042039;28;20117;-82
2023/12/22 09:16:44;;;;;;;12.38;1.42;;;7.80;99.90;;;;;;5060941;28;20121;-82
2023/12/22 09:19:10;;;;;;;15.27;1.08;;;7.90;99.90;;;;;;5059709;28;20124;-80
2023/12/22 09:21:35;;;;;;;16.00;1.48;;;7.90;99.90;;;;;;5042747;28;20133;-83
2023/12/22 09:24:01;;;;;;;13.48;1.10;;;8.00;99.90;;;;;;5042065;28;20112;-82
2023/12/22 09:26:27;;;;;;;8.38;0.98;;;8.10;99.90;;;;;;5041908;28;20024;-80
2023/12/22 09:28:54;;;;;;;15.13;1.58;;;8.10;99.90;;;;;;5041636;28;20025;-82
2023/12/22 09:31:19;;;;;;;16.50;2.50;;;8.10;99.90;;;;;;5037628;28;1092526;-82
2023/12/22 09:33:45;;;;;;;15.18;1.80;;;8.10;99.90;;;;;;5057006;28;20083;-82
2023/12/22 09:36:11;;;;;;;13.25;1.80;;;8.10;99.90;;;;;;5061979;28;20052;-81
2023/12/22 09:38:37;;;;;;;10.98;1.73;;;8.10;99.90;;;;;;5058030;28;20397;-84
2023/12/22 09:41:03;;;;;;;12.55;1.83;;;8.20;99.90;;;;;;5043346;28;20032;-80
2023/12/22 09:43:31;;;;;;;14.27;1.25;;;8.20;99.90;;;;;;5040968;28;20430;-82
2023/12/22 09:45:59;;;;;;;14.30;0.60;;;8.30;99.90;;;;;;5057945;28;20040;-82
2023/12/22 09:48:29;;;;;;;10.55;0.75;;;8.30;99.90;;;;;;5049483;28;20123;-80
2023/12/22 09:50:55;;;;;;;12.40;0.88;;;8.40;99.90;;;;;;5052309;28;20034;-80
2023/12/22 09:53:21;;;;;;;11.35;0.80;;;8.40;99.90;;;;;;5057543;28;20455;-81
2023/12/22 09:55:48;;;;;;;17.17;1.17;;;8.50;99.90;;;;;;5046467;28;20488;-81
2023/12/22 09:58:15;;;;;;;11.50;0.80;;;8.60;99.90;;;;;;5040351;28;20022;-82
2023/12/22 10:00:41;;;;;;;9.75;0.77;;;8.60;99.90;;;;;;5060274;28;20200;-79
2023/12/22 10:03:09;;;;;;;6.97;0.80;;;8.60;99.90;;;;;;5061887;28;20025;-81
2023/12/22 10:05:35;;;;;;;8.98;0.70;;;8.50;99.90;;;;;;5038955;28;20399;-86
2023/12/22 10:08:01;;;;;;;7.70;0.77;;;8.50;99.90;;;;;;5059473;28;20039;-83
2023/12/22 10:10:32;;;;;;;6.40;0.40;;;8.40;99.90;;;;;;5076149;28;20029;-80
2023/12/22 10:12:59;;;;;;;6.65;0.43;;;8.40;99.90;;;;;;5044402;28;20064;-79
2023/12/22 10:15:26;;;;;;;4.43;0.20;;;8.40;99.90;;;;;;5028821;28;20043;-82
2023/12/22 10:17:55;;;;;;;2.47;0.20;;;8.30;99.90;;;;;;5040185;28;20497;-81
2023/12/22 10:20:22;;;;;;;2.75;0.57;;;8.20;99.90;;;;;;5031177;28;20037;-80
2023/12/22 10:22:47;;;;;;;3.75;0.10;;;8.30;99.90;;;;;;5047818;28;20072;-79
2023/12/22 10:25:20;;;;;;;3.47;0.20;;;8.20;99.90;;;;;;5054944;28;20448;-82
2023/12/22 10:27:46;;;;;;;4.68;0.20;;;8.20;99.90;;;;;;5040138;28;20112;-80
2023/12/22 10:30:12;;;;;;;1.98;0.20;;;8.20;99.90;;;;;;5039628;28;20525;-79
2023/12/22 10:32:44;;;;;;;3.20;0.20;;;8.20;99.90;;;;;;5039972;28;20627;-79
2023/12/22 10:35:10;;;;;;;1.48;0.20;;;8.20;99.90;;;;;;5039210;28;20033;-80
2023/12/22 10:37:36;;;;;;;2.33;0.50;;;8.20;99.90;;;;;;5016099;28;20377;-79
2023/12/22 10:40:05;;;;;;;2.40;0.10;;;8.20;99.90;;;;;;5015250;28;20116;-80
2023/12/22 10:42:32;;;;;;;4.95;0.20;;;8.20;99.90;;;;;;5024342;28;20416;-78
2023/12/22 10:44:57;;;;;;;2.70;0.15;;;8.30;99.90;;;;;;5029236;28;20043;-79
2023/12/22 10:47:23;;;;;;;3.20;0.20;;;8.30;99.90;;;;;;5030627;28;20033;-80
2023/12/22 10:49:49;;;;;;;5.80;0.20;;;8.30;99.90;;;;;;5044981;28;20048;-79
2023/12/22 10:52:18;;;;;;;3.28;0.20;;;8.40;99.90;;;;;;5027749;28;20116;-81
2023/12/22 10:54:44;;;;;;;1.85;0.13;;;8.50;99.90;;;;;;5033631;28;20032;-79
2023/12/22 10:57:11;;;;;;;6.43;0.30;;;8.60;99.90;;;;;;5035635;28;20041;-80
2023/12/22 10:59:45;;;;;;;9.20;0.82;;;8.80;99.90;;;;;;5029840;28;20098;-80
2023/12/22 11:02:17;;;;;;;7.03;0.75;;;8.90;99.90;;;;;;5022488;28;20075;-83
2023/12/22 11:04:47;;;;;;;4.38;0.50;;;9.00;99.90;;;;;;5021371;28;20095;-81
2023/12/22 11:07:15;;;;;;;2.20;0.20;;;9.00;99.90;;;;;;5047265;28;20037;-80
2023/12/22 11:09:42;;;;;;;2.85;0.20;;;9.00;99.90;;;;;;5032360;28;20040;-79
2023/12/22 11:12:08;;;;;;;5.40;0.20;;;9.00;99.90;;;;;;5047778;28;20037;-80
2023/12/22 11:14:35;;;;;;;5.30;0.30;;;9.10;99.90;;;;;;5040823;28;20385;-80
2023/12/22 11:17:01;;;;;;;4.43;0.40;;;9.10;99.90;;;;;;5033148;28;20184;-81
2023/12/22 11:19:30;;;;;;;5.32;0.40;;;9.10;99.90;;;;;;5032545;28;21334;-79
2023/12/22 11:21:58;;;;;;;3.28;0.30;;;9.10;99.90;;;;;;5032951;28;20125;-79
2023/12/22 11:24:28;;;;;;;5.90;0.30;;;9.20;99.90;;;;;;5036938;28;20029;-80
2023/12/22 11:26:57;;;;;;;3.53;0.20;;;9.10;99.90;;;;;;5048461;28;20397;-79
2023/12/22 11:29:25;;;;;;;7.00;0.30;;;9.00;99.90;;;;;;5032418;28;20282;-80
2023/12/22 11:31:55;;;;;;;4.25;0.20;;;9.00;99.90;;;;;;5030909;28;20143;-77
2023/12/22 11:34:21;;;;;;;3.90;0.30;;;9.00;99.90;;;;;;5053132;28;20037;-78
2023/12/22 11:36:48;;;;;;;5.78;0.77;;;9.10;99.90;;;;;;5048838;28;20044;-84
2023/12/22 11:39:14;;;;;;;4.25;0.30;;;9.10;99.90;;;;;;5037624;28;20441;-77
2023/12/22 11:41:41;;;;;;;6.45;0.40;;;9.20;99.90;;;;;;5040666;28;20064;-85
2023/12/22 11:44:08;;;;;;;6.55;0.40;;;9.30;99.90;;;;;;5072343;28;20444;-79
2023/12/22 11:46:34;;;;;;;8.93;0.30;;;9.30;99.90;;;;;;5036329;28;20400;-79
2023/12/22 11:49:00;;;;;;;4.25;0.43;;;9.40;99.90;;;;;;5034363;28;20044;-79
2023/12/22 11:51:34;;;;;;;3.85;0.30;;;9.50;99.90;;;;;;5034682;28;20036;-79
2023/12/22 11:54:00;;;;;;;8.30;0.35;;;9.50;99.90;;;;;;5051678;28;20052;-81
2023/12/22 11:56:25;;;;;;;5.97;0.30;;;9.60;99.90;;;;;;5032308;28;20575;-79
2023/12/22 11:58:54;;;;;;;3.58;0.30;;;9.70;99.90;;;;;;5035143;28;20037;-79
2023/12/22 12:01:23;;;;;;;7.60;0.50;;;9.60;99.90;;;;;;5049930;28;20045;-83
2023/12/22 12:03:58;;;;;;;6.30;0.60;;;9.60;99.90;;;;;;5033496;28;20032;-79
2023/12/22 12:06:30;;;;;;;4.40;0.43;;;9.60;99.90;;;;;;5065644;28;20037;-79
2023/12/22 12:09:04;;;;;;;3.75;0.30;;;9.60;99.90;;;;;;5036044;28;20047;-79
2023/12/22 12:12:05;;;;;;;5.15;0.20;;;9.50;99.90;;;;;;5038420;28;20576;-79
2023/12/22 12:14:40;;;;;;;3.80;0.40;;;9.30;99.90;;;;;;5032970;28;20033;-82
2023/12/22 12:17:11;;;;;;;4.95;0.30;;;9.20;99.90;;;;;;5035561;28;20152;-79
2023/12/22 12:19:43;;;;;;;5.63;0.40;;;9.30;99.90;;;;;;5034398;28;20036;-81
2023/12/22 12:22:09;;;;;;;6.88;0.47;;;9.30;99.90;;;;;;5034289;28;20070;-81
2023/12/22 12:24:37;;;;;;;4.95;0.30;;;9.40;99.90;;;;;;5046991;28;20029;-79
2023/12/22 12:27:03;;;;;;;5.20;0.30;;;9.40;99.90;;;;;;5051425;28;20517;-81
2023/12/22 12:29:30;;;;;;;4.78;1.10;;;9.30;99.90;;;;;;5047004;28;20066;-80
2023/12/22 12:32:05;;;;;;;5.22;0.30;;;9.30;99.90;;;;;;5038993;28;20045;-84
2023/12/22 12:34:32;;;;;;;9.32;0.40;;;9.30;99.90;;;;;;5046458;28;20029;-83
2023/12/22 12:36:58;;;;;;;4.47;0.30;;;9.40;99.90;;;;;;5047981;28;20553;-82
2023/12/22 12:39:29;;;;;;;5.38;0.32;;;9.40;99.90;;;;;;5039312;28;20067;-82
2023/12/22 12:41:56;;;;;;;4.25;0.30;;;9.50;99.90;;;;;;5037678;28;20032;-82
2023/12/22 12:44:25;;;;;;;2.38;0.32;;;9.50;99.90;;;;;;5036539;28;20027;-85
2023/12/22 12:46:50;;;;;;;10.68;0.40;;;9.40;99.90;;;;;;5072084;28;20036;-85
2023/12/22 12:49:16;;;;;;;4.97;0.30;;;9.40;99.90;;;;;;5038990;28;20029;-84
2023/12/22 12:51:43;;;;;;;7.45;0.30;;;9.30;99.90;;;;;;5036309;28;20025;-80